sensor_id;sensor_type;location;lat;lon;timestamp;pressure;altitude;pressure_sealevel;temperature
68127;BMP180;54931;52.098;21.006;2023-03-14T00:01:18;98689.80;;;8.20
68127;BMP180;54931;52.098;21.006;2023-03-14T00:03:49;98684.20;;;8.18
68127;BMP180;54931;52.098;21.006;2023-03-14T00:06:19;98694.00;;;8.02
68127;BMP180;54931;52.098;21.006;2023-03-14T00:08:48;98688.60;;;7.92
68127;BMP180;54931;52.098;21.006;2023-03-14T00:11:20;98677.00;;;7.88
68127;BMP180;54931;52.098;21.006;2023-03-14T00:13:50;98675.00;;;7.80
68127;BMP180;54931;52.098;21.006;2023-03-14T00:16:19;98668.00;;;7.70
68127;BMP180;54931;52.098;21.006;2023-03-14T00:18:48;98673.00;;;7.70
68127;BMP180;54931;52.098;21.006;2023-03-14T00:21:15;98662.80;;;7.60
68127;BMP180;54931;52.098;21.006;2023-03-14T00:23:44;98664.60;;;7.60
68127;BMP180;54931;52.098;21.006;2023-03-14T00:26:18;98645.40;;;7.60
68127;BMP180;54931;52.098;21.006;2023-03-14T00:28:52;98645.60;;;7.60
68127;BMP180;54931;52.098;21.006;2023-03-14T00:31:21;98656.00;;;7.60
68127;BMP180;54931;52.098;21.006;2023-03-14T00:33:52;98643.00;;;7.60
68127;BMP180;54931;52.098;21.006;2023-03-14T00:36:21;98643.60;;;7.60
68127;BMP180;54931;52.098;21.006;2023-03-14T00:38:50;98636.00;;;7.60
68127;BMP180;54931;52.098;21.006;2023-03-14T00:41:22;98632.80;;;7.60
68127;BMP180;54931;52.098;21.006;2023-03-14T00:43:50;98634.00;;;7.60
68127;BMP180;54931;52.098;21.006;2023-03-14T00:46:18;98624.80;;;7.62
68127;BMP180;54931;52.098;21.006;2023-03-14T00:48:47;98624.00;;;7.64
68127;BMP180;54931;52.098;21.006;2023-03-14T00:51:16;98613.00;;;7.60
68127;BMP180;54931;52.098;21.006;2023-03-14T00:53:44;98602.20;;;7.60
68127;BMP180;54931;52.098;21.006;2023-03-14T00:56:13;98596.60;;;7.60
68127;BMP180;54931;52.098;21.006;2023-03-14T00:58:41;98593.80;;;7.60
68127;BMP180;54931;52.098;21.006;2023-03-14T01:01:16;98601.00;;;7.60
68127;BMP180;54931;52.098;21.006;2023-03-14T01:03:45;98577.00;;;7.60
68127;BMP180;54931;52.098;21.006;2023-03-14T01:06:18;98580.60;;;7.62
68127;BMP180;54931;52.098;21.006;2023-03-14T01:08:46;98577.00;;;7.60
68127;BMP180;54931;52.098;21.006;2023-03-14T01:13:49;98566.60;;;7.66
68127;BMP180;54931;52.098;21.006;2023-03-14T01:16:19;98560.60;;;7.60
68127;BMP180;54931;52.098;21.006;2023-03-14T01:18:48;98557.80;;;7.60
68127;BMP180;54931;52.098;21.006;2023-03-14T01:21:26;98555.60;;;7.60
68127;BMP180;54931;52.098;21.006;2023-03-14T01:23:56;98554.80;;;7.60
68127;BMP180;54931;52.098;21.006;2023-03-14T01:26:29;98557.00;;;7.68
68127;BMP180;54931;52.098;21.006;2023-03-14T01:28:57;98557.40;;;7.60
68127;BMP180;54931;52.098;21.006;2023-03-14T01:31:27;98561.00;;;7.60
68127;BMP180;54931;52.098;21.006;2023-03-14T01:33:55;98563.60;;;7.60
68127;BMP180;54931;52.098;21.006;2023-03-14T01:36:23;98566.80;;;7.60
68127;BMP180;54931;52.098;21.006;2023-03-14T01:38:51;98554.60;;;7.50
68127;BMP180;54931;52.098;21.006;2023-03-14T01:41:24;98555.60;;;7.50
68127;BMP180;54931;52.098;21.006;2023-03-14T01:43:53;98558.60;;;7.40
68127;BMP180;54931;52.098;21.006;2023-03-14T01:46:50;98569.40;;;7.40
68127;BMP180;54931;52.098;21.006;2023-03-14T01:49:24;98565.40;;;7.30
68127;BMP180;54931;52.098;21.006;2023-03-14T01:52:09;98566.40;;;7.28
68127;BMP180;54931;52.098;21.006;2023-03-14T01:54:50;98568.20;;;7.20
68127;BMP180;54931;52.098;21.006;2023-03-14T01:57:27;98563.60;;;7.20
68127;BMP180;54931;52.098;21.006;2023-03-14T02:02:51;98544.60;;;7.12
68127;BMP180;54931;52.098;21.006;2023-03-14T02:05:25;98558.00;;;7.10
68127;BMP180;54931;52.098;21.006;2023-03-14T02:08:00;98554.40;;;7.10
68127;BMP180;54931;52.098;21.006;2023-03-14T02:10:38;98544.00;;;7.10
68127;BMP180;54931;52.098;21.006;2023-03-14T02:13:07;98542.80;;;7.00
68127;BMP180;54931;52.098;21.006;2023-03-14T02:15:36;98536.40;;;7.00
68127;BMP180;54931;52.098;21.006;2023-03-14T02:18:05;98538.60;;;7.00
68127;BMP180;54931;52.098;21.006;2023-03-14T02:21:12;98536.80;;;7.00
68127;BMP180;54931;52.098;21.006;2023-03-14T02:26:40;98526.60;;;6.90
68127;BMP180;54931;52.098;21.006;2023-03-14T02:29:10;98518.20;;;6.90
68127;BMP180;54931;52.098;21.006;2023-03-14T02:31:38;98511.80;;;6.90
68127;BMP180;54931;52.098;21.006;2023-03-14T02:34:06;98496.00;;;6.90
68127;BMP180;54931;52.098;21.006;2023-03-14T02:36:34;98493.00;;;6.90
68127;BMP180;54931;52.098;21.006;2023-03-14T02:39:24;98486.00;;;6.84
68127;BMP180;54931;52.098;21.006;2023-03-14T02:41:55;98478.60;;;6.80
68127;BMP180;54931;52.098;21.006;2023-03-14T02:44:23;98476.80;;;6.80
68127;BMP180;54931;52.098;21.006;2023-03-14T02:46:51;98473.60;;;6.80
68127;BMP180;54931;52.098;21.006;2023-03-14T02:49:19;98464.40;;;6.70
68127;BMP180;54931;52.098;21.006;2023-03-14T02:51:47;98466.20;;;6.70
68127;BMP180;54931;52.098;21.006;2023-03-14T02:54:16;98472.40;;;6.70
68127;BMP180;54931;52.098;21.006;2023-03-14T02:56:45;98470.80;;;6.70
68127;BMP180;54931;52.098;21.006;2023-03-14T02:59:13;98469.00;;;6.80
68127;BMP180;54931;52.098;21.006;2023-03-14T03:01:41;98468.40;;;6.80
68127;BMP180;54931;52.098;21.006;2023-03-14T03:04:09;98466.40;;;6.80
68127;BMP180;54931;52.098;21.006;2023-03-14T03:06:36;98464.20;;;6.80
68127;BMP180;54931;52.098;21.006;2023-03-14T03:09:04;98465.20;;;6.80
68127;BMP180;54931;52.098;21.006;2023-03-14T03:11:32;98473.40;;;6.80
68127;BMP180;54931;52.098;21.006;2023-03-14T03:14:00;98466.00;;;6.90
68127;BMP180;54931;52.098;21.006;2023-03-14T03:16:28;98474.00;;;6.90
68127;BMP180;54931;52.098;21.006;2023-03-14T03:18:55;98478.60;;;6.90
68127;BMP180;54931;52.098;21.006;2023-03-14T03:21:23;98477.00;;;6.86
68127;BMP180;54931;52.098;21.006;2023-03-14T03:23:51;98471.40;;;6.80
68127;BMP180;54931;52.098;21.006;2023-03-14T03:26:18;98468.40;;;6.90
68127;BMP180;54931;52.098;21.006;2023-03-14T03:28:46;98460.80;;;6.90
68127;BMP180;54931;52.098;21.006;2023-03-14T03:31:14;98454.80;;;6.90
68127;BMP180;54931;52.098;21.006;2023-03-14T03:33:42;98468.00;;;6.90
68127;BMP180;54931;52.098;21.006;2023-03-14T03:36:10;98460.40;;;6.80
68127;BMP180;54931;52.098;21.006;2023-03-14T03:38:38;98459.60;;;6.80
68127;BMP180;54931;52.098;21.006;2023-03-14T03:41:06;98471.00;;;6.72
68127;BMP180;54931;52.098;21.006;2023-03-14T03:43:34;98465.40;;;6.70
68127;BMP180;54931;52.098;21.006;2023-03-14T03:46:04;98458.20;;;6.70
68127;BMP180;54931;52.098;21.006;2023-03-14T03:48:34;98452.80;;;6.70
68127;BMP180;54931;52.098;21.006;2023-03-14T03:51:02;98450.00;;;6.68
68127;BMP180;54931;52.098;21.006;2023-03-14T03:53:30;98436.40;;;6.64
68127;BMP180;54931;52.098;21.006;2023-03-14T03:55:58;98441.20;;;6.70
68127;BMP180;54931;52.098;21.006;2023-03-14T03:58:26;98442.20;;;6.70
68127;BMP180;54931;52.098;21.006;2023-03-14T04:00:54;98431.20;;;6.70
68127;BMP180;54931;52.098;21.006;2023-03-14T04:03:22;98426.00;;;6.70
68127;BMP180;54931;52.098;21.006;2023-03-14T04:06:02;98427.20;;;6.70
68127;BMP180;54931;52.098;21.006;2023-03-14T04:08:30;98432.60;;;6.70
68127;BMP180;54931;52.098;21.006;2023-03-14T04:11:00;98432.60;;;6.68
68127;BMP180;54931;52.098;21.006;2023-03-14T04:13:28;98437.40;;;6.68
68127;BMP180;54931;52.098;21.006;2023-03-14T04:15:56;98442.40;;;6.62
68127;BMP180;54931;52.098;21.006;2023-03-14T04:18:25;98448.20;;;6.60
68127;BMP180;54931;52.098;21.006;2023-03-14T04:20:57;98459.80;;;6.60
68127;BMP180;54931;52.098;21.006;2023-03-14T04:23:26;98449.60;;;6.50
68127;BMP180;54931;52.098;21.006;2023-03-14T04:25:53;98449.00;;;6.50
68127;BMP180;54931;52.098;21.006;2023-03-14T04:28:21;98445.80;;;6.40
68127;BMP180;54931;52.098;21.006;2023-03-14T04:30:49;98447.40;;;6.30
68127;BMP180;54931;52.098;21.006;2023-03-14T04:33:17;98456.60;;;6.30
68127;BMP180;54931;52.098;21.006;2023-03-14T04:35:46;98467.80;;;6.24
68127;BMP180;54931;52.098;21.006;2023-03-14T04:38:14;98462.60;;;6.20
68127;BMP180;54931;52.098;21.006;2023-03-14T04:40:43;98455.80;;;6.16
68127;BMP180;54931;52.098;21.006;2023-03-14T04:43:12;98465.40;;;6.14
68127;BMP180;54931;52.098;21.006;2023-03-14T04:45:43;98457.20;;;6.20
68127;BMP180;54931;52.098;21.006;2023-03-14T04:48:11;98436.80;;;6.20
68127;BMP180;54931;52.098;21.006;2023-03-14T04:50:40;98431.00;;;6.20
68127;BMP180;54931;52.098;21.006;2023-03-14T04:53:08;98422.00;;;6.20
68127;BMP180;54931;52.098;21.006;2023-03-14T04:55:36;98415.40;;;6.22
68127;BMP180;54931;52.098;21.006;2023-03-14T04:58:03;98409.00;;;6.30
68127;BMP180;54931;52.098;21.006;2023-03-14T05:00:31;98414.80;;;6.30
68127;BMP180;54931;52.098;21.006;2023-03-14T05:03:00;98413.20;;;6.32
68127;BMP180;54931;52.098;21.006;2023-03-14T05:05:28;98406.60;;;6.40
68127;BMP180;54931;52.098;21.006;2023-03-14T05:07:56;98406.80;;;6.40
68127;BMP180;54931;52.098;21.006;2023-03-14T05:10:23;98400.80;;;6.42
68127;BMP180;54931;52.098;21.006;2023-03-14T05:12:51;98393.60;;;6.50
68127;BMP180;54931;52.098;21.006;2023-03-14T05:15:19;98382.80;;;6.50
68127;BMP180;54931;52.098;21.006;2023-03-14T05:17:47;98381.60;;;6.60
68127;BMP180;54931;52.098;21.006;2023-03-14T05:20:17;98365.80;;;6.60
68127;BMP180;54931;52.098;21.006;2023-03-14T05:22:44;98367.80;;;6.60
68127;BMP180;54931;52.098;21.006;2023-03-14T05:25:13;98389.00;;;6.60
68127;BMP180;54931;52.098;21.006;2023-03-14T05:27:41;98384.20;;;6.60
68127;BMP180;54931;52.098;21.006;2023-03-14T05:30:10;98395.40;;;6.62
68127;BMP180;54931;52.098;21.006;2023-03-14T05:32:38;98394.60;;;6.68
68127;BMP180;54931;52.098;21.006;2023-03-14T05:35:06;98393.20;;;6.64
68127;BMP180;54931;52.098;21.006;2023-03-14T05:37:34;98381.80;;;6.60
68127;BMP180;54931;52.098;21.006;2023-03-14T05:40:03;98382.60;;;6.60
68127;BMP180;54931;52.098;21.006;2023-03-14T05:42:33;98377.40;;;6.60
68127;BMP180;54931;52.098;21.006;2023-03-14T05:45:01;98369.20;;;6.60
68127;BMP180;54931;52.098;21.006;2023-03-14T05:47:29;98362.60;;;6.60
68127;BMP180;54931;52.098;21.006;2023-03-14T05:49:57;98348.40;;;6.62
68127;BMP180;54931;52.098;21.006;2023-03-14T05:52:25;98344.40;;;6.70
68127;BMP180;54931;52.098;21.006;2023-03-14T05:54:53;98350.80;;;7.02
68127;BMP180;54931;52.098;21.006;2023-03-14T05:57:20;98340.00;;;7.36
68127;BMP180;54931;52.098;21.006;2023-03-14T05:59:49;98338.00;;;7.56
68127;BMP180;54931;52.098;21.006;2023-03-14T06:02:17;98335.20;;;7.90
68127;BMP180;54931;52.098;21.006;2023-03-14T06:04:45;98332.60;;;8.12
68127;BMP180;54931;52.098;21.006;2023-03-14T06:07:13;98322.80;;;8.40
68127;BMP180;54931;52.098;21.006;2023-03-14T06:09:40;98320.00;;;8.62
68127;BMP180;54931;52.098;21.006;2023-03-14T06:12:08;98313.40;;;8.84
68127;BMP180;54931;52.098;21.006;2023-03-14T06:14:37;98319.60;;;9.20
68127;BMP180;54931;52.098;21.006;2023-03-14T06:17:04;98312.20;;;9.40
68127;BMP180;54931;52.098;21.006;2023-03-14T06:19:32;98304.20;;;9.56
68127;BMP180;54931;52.098;21.006;2023-03-14T06:22:00;98299.80;;;9.72
68127;BMP180;54931;52.098;21.006;2023-03-14T06:24:28;98297.40;;;9.96
68127;BMP180;54931;52.098;21.006;2023-03-14T06:26:57;98307.80;;;9.80
68127;BMP180;54931;52.098;21.006;2023-03-14T06:29:25;98309.80;;;9.44
68127;BMP180;54931;52.098;21.006;2023-03-14T06:31:52;98305.00;;;9.10
68127;BMP180;54931;52.098;21.006;2023-03-14T06:34:20;98299.40;;;8.90
68127;BMP180;54931;52.098;21.006;2023-03-14T06:36:48;98299.80;;;8.80
68127;BMP180;54931;52.098;21.006;2023-03-14T06:39:16;98299.80;;;8.76
68127;BMP180;54931;52.098;21.006;2023-03-14T06:41:44;98287.20;;;8.80
68127;BMP180;54931;52.098;21.006;2023-03-14T06:44:12;98293.40;;;8.80
68127;BMP180;54931;52.098;21.006;2023-03-14T06:46:40;98294.80;;;8.80
68127;BMP180;54931;52.098;21.006;2023-03-14T06:49:08;98292.00;;;8.90
68127;BMP180;54931;52.098;21.006;2023-03-14T06:51:36;98299.40;;;8.90
68127;BMP180;54931;52.098;21.006;2023-03-14T06:54:04;98293.40;;;9.00
68127;BMP180;54931;52.098;21.006;2023-03-14T06:56:32;98294.80;;;9.20
68127;BMP180;54931;52.098;21.006;2023-03-14T06:59:00;98290.40;;;9.30
68127;BMP180;54931;52.098;21.006;2023-03-14T07:01:30;98287.60;;;9.40
68127;BMP180;54931;52.098;21.006;2023-03-14T07:03:59;98294.60;;;9.50
68127;BMP180;54931;52.098;21.006;2023-03-14T07:06:27;98281.40;;;9.74
68127;BMP180;54931;52.098;21.006;2023-03-14T07:08:57;98287.40;;;10.20
68127;BMP180;54931;52.098;21.006;2023-03-14T07:11:26;98291.40;;;10.40
68127;BMP180;54931;52.098;21.006;2023-03-14T07:13:54;98293.20;;;10.50
68127;BMP180;54931;52.098;21.006;2023-03-14T07:16:22;98304.60;;;10.60
68127;BMP180;54931;52.098;21.006;2023-03-14T07:18:49;98303.80;;;10.70
68127;BMP180;54931;52.098;21.006;2023-03-14T07:21:17;98289.60;;;10.80
68127;BMP180;54931;52.098;21.006;2023-03-14T07:23:45;98296.60;;;10.72
68127;BMP180;54931;52.098;21.006;2023-03-14T07:26:14;98308.20;;;10.70
68127;BMP180;54931;52.098;21.006;2023-03-14T07:28:42;98312.00;;;10.80
68127;BMP180;54931;52.098;21.006;2023-03-14T07:31:10;98311.60;;;10.80
68127;BMP180;54931;52.098;21.006;2023-03-14T07:33:38;98315.20;;;11.00
68127;BMP180;54931;52.098;21.006;2023-03-14T07:36:07;98324.40;;;11.54
68127;BMP180;54931;52.098;21.006;2023-03-14T07:38:35;98325.20;;;11.80
68127;BMP180;54931;52.098;21.006;2023-03-14T07:41:04;98326.20;;;12.20
68127;BMP180;54931;52.098;21.006;2023-03-14T07:43:33;98315.40;;;12.70
68127;BMP180;54931;52.098;21.006;2023-03-14T07:46:00;98327.80;;;13.34
68127;BMP180;54931;52.098;21.006;2023-03-14T07:48:28;98319.60;;;13.72
68127;BMP180;54931;52.098;21.006;2023-03-14T07:50:56;98314.20;;;13.82
68127;BMP180;54931;52.098;21.006;2023-03-14T07:53:24;98317.00;;;13.90
68127;BMP180;54931;52.098;21.006;2023-03-14T07:55:53;98321.60;;;13.80
68127;BMP180;54931;52.098;21.006;2023-03-14T07:58:21;98321.20;;;13.70
68127;BMP180;54931;52.098;21.006;2023-03-14T08:00:50;98326.00;;;13.90
68127;BMP180;54931;52.098;21.006;2023-03-14T08:03:18;98329.60;;;14.36
68127;BMP180;54931;52.098;21.006;2023-03-14T08:05:50;98321.40;;;14.64
68127;BMP180;54931;52.098;21.006;2023-03-14T08:08:18;98320.00;;;14.60
68127;BMP180;54931;52.098;21.006;2023-03-14T08:10:46;98319.40;;;14.32
68127;BMP180;54931;52.098;21.006;2023-03-14T08:13:14;98325.20;;;14.18
68127;BMP180;54931;52.098;21.006;2023-03-14T08:15:42;98327.60;;;14.10
68127;BMP180;54931;52.098;21.006;2023-03-14T08:18:09;98333.60;;;14.10
68127;BMP180;54931;52.098;21.006;2023-03-14T08:20:37;98331.80;;;14.10
68127;BMP180;54931;52.098;21.006;2023-03-14T08:23:05;98332.60;;;14.20
68127;BMP180;54931;52.098;21.006;2023-03-14T08:25:33;98325.40;;;14.16
68127;BMP180;54931;52.098;21.006;2023-03-14T08:28:01;98326.00;;;14.30
68127;BMP180;54931;52.098;21.006;2023-03-14T08:30:28;98327.80;;;14.32
68127;BMP180;54931;52.098;21.006;2023-03-14T08:32:57;98330.40;;;14.34
68127;BMP180;54931;52.098;21.006;2023-03-14T08:35:26;98330.80;;;14.50
68127;BMP180;54931;52.098;21.006;2023-03-14T08:37:54;98338.40;;;14.74
68127;BMP180;54931;52.098;21.006;2023-03-14T08:40:23;98335.00;;;15.00
68127;BMP180;54931;52.098;21.006;2023-03-14T08:42:51;98337.20;;;15.04
68127;BMP180;54931;52.098;21.006;2023-03-14T08:45:19;98329.80;;;15.20
68127;BMP180;54931;52.098;21.006;2023-03-14T08:47:47;98342.00;;;15.30
68127;BMP180;54931;52.098;21.006;2023-03-14T08:50:15;98332.60;;;15.30
68127;BMP180;54931;52.098;21.006;2023-03-14T08:52:43;98337.60;;;15.40
68127;BMP180;54931;52.098;21.006;2023-03-14T08:55:11;98336.60;;;15.60
68127;BMP180;54931;52.098;21.006;2023-03-14T08:57:40;98340.80;;;15.78
68127;BMP180;54931;52.098;21.006;2023-03-14T09:00:08;98334.20;;;15.82
68127;BMP180;54931;52.098;21.006;2023-03-14T09:02:42;98339.00;;;16.08
68127;BMP180;54931;52.098;21.006;2023-03-14T09:05:11;98338.60;;;16.08
68127;BMP180;54931;52.098;21.006;2023-03-14T09:07:39;98335.60;;;16.42
68127;BMP180;54931;52.098;21.006;2023-03-14T09:10:08;98336.20;;;16.90
68127;BMP180;54931;52.098;21.006;2023-03-14T09:12:36;98333.60;;;17.20
68127;BMP180;54931;52.098;21.006;2023-03-14T09:15:05;98327.00;;;17.42
68127;BMP180;54931;52.098;21.006;2023-03-14T09:17:33;98322.40;;;17.76
68127;BMP180;54931;52.098;21.006;2023-03-14T09:20:02;98318.40;;;18.00
68127;BMP180;54931;52.098;21.006;2023-03-14T09:22:34;98322.40;;;18.18
68127;BMP180;54931;52.098;21.006;2023-03-14T09:25:04;98310.40;;;18.10
68127;BMP180;54931;52.098;21.006;2023-03-14T09:27:32;98314.40;;;18.16
68127;BMP180;54931;52.098;21.006;2023-03-14T09:29:59;98309.20;;;18.40
68127;BMP180;54931;52.098;21.006;2023-03-14T09:32:27;98305.40;;;18.60
68127;BMP180;54931;52.098;21.006;2023-03-14T09:34:55;98304.00;;;19.00
68127;BMP180;54931;52.098;21.006;2023-03-14T09:37:22;98297.60;;;19.20
68127;BMP180;54931;52.098;21.006;2023-03-14T09:39:50;98294.60;;;19.20
68127;BMP180;54931;52.098;21.006;2023-03-14T09:42:21;98291.80;;;19.14
68127;BMP180;54931;52.098;21.006;2023-03-14T09:44:56;98279.00;;;19.00
68127;BMP180;54931;52.098;21.006;2023-03-14T09:47:25;98286.00;;;18.90
68127;BMP180;54931;52.098;21.006;2023-03-14T09:49:53;98280.80;;;18.70
68127;BMP180;54931;52.098;21.006;2023-03-14T09:52:36;98275.00;;;18.60
68127;BMP180;54931;52.098;21.006;2023-03-14T09:55:13;98276.40;;;18.66
68127;BMP180;54931;52.098;21.006;2023-03-14T09:57:43;98259.80;;;19.10
68127;BMP180;54931;52.098;21.006;2023-03-14T10:00:21;98254.60;;;19.26
68127;BMP180;54931;52.098;21.006;2023-03-14T10:02:53;98257.80;;;19.26
68127;BMP180;54931;52.098;21.006;2023-03-14T10:05:24;98250.80;;;19.30
68127;BMP180;54931;52.098;21.006;2023-03-14T10:07:51;98260.00;;;19.30
68127;BMP180;54931;52.098;21.006;2023-03-14T10:10:21;98265.20;;;19.20
68127;BMP180;54931;52.098;21.006;2023-03-14T10:12:58;98263.40;;;19.06
68127;BMP180;54931;52.098;21.006;2023-03-14T10:15:33;98262.20;;;18.62
68127;BMP180;54931;52.098;21.006;2023-03-14T10:18:03;98266.40;;;18.18
68127;BMP180;54931;52.098;21.006;2023-03-14T10:20:35;98275.60;;;17.78
68127;BMP180;54931;52.098;21.006;2023-03-14T10:23:05;98269.20;;;17.50
68127;BMP180;54931;52.098;21.006;2023-03-14T10:25:36;98267.80;;;17.30
68127;BMP180;54931;52.098;21.006;2023-03-14T10:28:04;98262.80;;;17.20
68127;BMP180;54931;52.098;21.006;2023-03-14T10:30:45;98260.60;;;17.28
68127;BMP180;54931;52.098;21.006;2023-03-14T10:35:44;98246.00;;;17.52
68127;BMP180;54931;52.098;21.006;2023-03-14T10:38:16;98251.60;;;17.60
68127;BMP180;54931;52.098;21.006;2023-03-14T10:40:50;98258.00;;;17.60
68127;BMP180;54931;52.098;21.006;2023-03-14T10:43:23;98255.20;;;17.60
68127;BMP180;54931;52.098;21.006;2023-03-14T10:45:56;98255.00;;;17.40
68127;BMP180;54931;52.098;21.006;2023-03-14T10:48:30;98254.60;;;17.30
68127;BMP180;54931;52.098;21.006;2023-03-14T10:51:06;98246.20;;;17.20
68127;BMP180;54931;52.098;21.006;2023-03-14T10:53:47;98249.20;;;17.20
68127;BMP180;54931;52.098;21.006;2023-03-14T10:56:18;98248.00;;;17.10
68127;BMP180;54931;52.098;21.006;2023-03-14T10:58:49;98246.20;;;16.90
68127;BMP180;54931;52.098;21.006;2023-03-14T11:07:33;98254.00;;;16.60
68127;BMP180;54931;52.098;21.006;2023-03-14T11:13:12;98251.60;;;16.80
68127;BMP180;54931;52.098;21.006;2023-03-14T11:18:58;98237.40;;;16.96
68127;BMP180;54931;52.098;21.006;2023-03-14T11:21:49;98249.40;;;17.10
68127;BMP180;54931;52.098;21.006;2023-03-14T11:27:43;98265.40;;;17.06
68127;BMP180;54931;52.098;21.006;2023-03-14T11:33:39;98264.40;;;16.50
68127;BMP180;54931;52.098;21.006;2023-03-14T11:36:20;98250.80;;;16.24
68127;BMP180;54931;52.098;21.006;2023-03-14T11:38:51;98252.60;;;16.00
68127;BMP180;54931;52.098;21.006;2023-03-14T11:41:23;98246.20;;;15.86
68127;BMP180;54931;52.098;21.006;2023-03-14T11:43:57;98247.40;;;15.70
68127;BMP180;54931;52.098;21.006;2023-03-14T11:48:59;98256.00;;;15.40
68127;BMP180;54931;52.098;21.006;2023-03-14T11:51:34;98262.40;;;15.30
68127;BMP180;54931;52.098;21.006;2023-03-14T11:54:18;98260.40;;;15.20
68127;BMP180;54931;52.098;21.006;2023-03-14T11:56:54;98255.40;;;15.10
68127;BMP180;54931;52.098;21.006;2023-03-14T11:59:28;98249.40;;;15.10
68127;BMP180;54931;52.098;21.006;2023-03-14T12:02:19;98256.20;;;15.20
68127;BMP180;54931;52.098;21.006;2023-03-14T12:13:16;98245.20;;;15.90
68127;BMP180;54931;52.098;21.006;2023-03-14T12:15:58;98259.00;;;16.08
68127;BMP180;54931;52.098;21.006;2023-03-14T12:20:59;98257.20;;;16.10
68127;BMP180;54931;52.098;21.006;2023-03-14T12:23:51;98268.40;;;16.00
68127;BMP180;54931;52.098;21.006;2023-03-14T12:26:22;98260.60;;;15.90
68127;BMP180;54931;52.098;21.006;2023-03-14T12:39:45;98270.40;;;15.20
68127;BMP180;54931;52.098;21.006;2023-03-14T12:42:36;98261.40;;;14.94
68127;BMP180;54931;52.098;21.006;2023-03-14T12:47:50;98269.60;;;14.64
68127;BMP180;54931;52.098;21.006;2023-03-14T12:50:24;98268.20;;;14.50
68127;BMP180;54931;52.098;21.006;2023-03-14T12:53:13;98267.60;;;14.40
68127;BMP180;54931;52.098;21.006;2023-03-14T13:01:04;98274.20;;;14.00
68127;BMP180;54931;52.098;21.006;2023-03-14T13:03:52;98273.60;;;13.90
68127;BMP180;54931;52.098;21.006;2023-03-14T13:06:44;98275.40;;;13.80
68127;BMP180;54931;52.098;21.006;2023-03-14T13:12:03;98286.00;;;13.50
68127;BMP180;54931;52.098;21.006;2023-03-14T13:14:41;98285.20;;;13.30
68127;BMP180;54931;52.098;21.006;2023-03-14T13:17:22;98292.80;;;13.10
68127;BMP180;54931;52.098;21.006;2023-03-14T13:19:55;98293.20;;;12.90
68127;BMP180;54931;52.098;21.006;2023-03-14T13:22:29;98297.20;;;12.70
68127;BMP180;54931;52.098;21.006;2023-03-14T13:25:02;98300.20;;;12.48
68127;BMP180;54931;52.098;21.006;2023-03-14T13:27:34;98298.40;;;12.30
68127;BMP180;54931;52.098;21.006;2023-03-14T13:30:38;98297.00;;;12.10
68127;BMP180;54931;52.098;21.006;2023-03-14T13:33:18;98287.80;;;11.98
68127;BMP180;54931;52.098;21.006;2023-03-14T13:35:59;98288.60;;;11.80
68127;BMP180;54931;52.098;21.006;2023-03-14T13:38:35;98287.40;;;11.70
68127;BMP180;54931;52.098;21.006;2023-03-14T13:41:07;98294.20;;;11.60
68127;BMP180;54931;52.098;21.006;2023-03-14T13:43:43;98296.40;;;11.50
68127;BMP180;54931;52.098;21.006;2023-03-14T13:46:21;98295.20;;;11.40
68127;BMP180;54931;52.098;21.006;2023-03-14T13:48:53;98295.20;;;11.30
68127;BMP180;54931;52.098;21.006;2023-03-14T13:51:22;98296.40;;;11.20
68127;BMP180;54931;52.098;21.006;2023-03-14T13:53:53;98296.00;;;11.10
68127;BMP180;54931;52.098;21.006;2023-03-14T13:56:24;98297.40;;;11.00
68127;BMP180;54931;52.098;21.006;2023-03-14T13:58:52;98293.20;;;10.90
68127;BMP180;54931;52.098;21.006;2023-03-14T14:01:30;98297.80;;;10.80
68127;BMP180;54931;52.098;21.006;2023-03-14T14:04:08;98297.80;;;10.70
68127;BMP180;54931;52.098;21.006;2023-03-14T14:06:45;98295.20;;;10.70
68127;BMP180;54931;52.098;21.006;2023-03-14T14:09:16;98288.40;;;10.68
68127;BMP180;54931;52.098;21.006;2023-03-14T14:11:51;98285.00;;;10.60
68127;BMP180;54931;52.098;21.006;2023-03-14T14:16:54;98276.20;;;10.48
68127;BMP180;54931;52.098;21.006;2023-03-14T14:19:23;98273.60;;;10.40
68127;BMP180;54931;52.098;21.006;2023-03-14T14:21:53;98273.20;;;10.30
68127;BMP180;54931;52.098;21.006;2023-03-14T14:24:24;98270.80;;;10.30
68127;BMP180;54931;52.098;21.006;2023-03-14T14:26:54;98273.00;;;10.20
68127;BMP180;54931;52.098;21.006;2023-03-14T14:29:31;98266.00;;;10.20
68127;BMP180;54931;52.098;21.006;2023-03-14T14:34:43;98266.80;;;10.10
68127;BMP180;54931;52.098;21.006;2023-03-14T14:37:29;98265.80;;;10.00
68127;BMP180;54931;52.098;21.006;2023-03-14T14:40:09;98256.40;;;10.00
68127;BMP180;54931;52.098;21.006;2023-03-14T14:42:40;98250.00;;;9.90
68127;BMP180;54931;52.098;21.006;2023-03-14T14:45:23;98252.60;;;9.90
68127;BMP180;54931;52.098;21.006;2023-03-14T14:48:06;98248.00;;;9.84
68127;BMP180;54931;52.098;21.006;2023-03-14T14:50:51;98242.60;;;9.80
68127;BMP180;54931;52.098;21.006;2023-03-14T14:53:39;98233.00;;;9.80
68127;BMP180;54931;52.098;21.006;2023-03-14T14:56:16;98231.60;;;9.80
68127;BMP180;54931;52.098;21.006;2023-03-14T14:58:45;98235.80;;;9.80
68127;BMP180;54931;52.098;21.006;2023-03-14T15:01:22;98238.40;;;9.80
68127;BMP180;54931;52.098;21.006;2023-03-14T15:03:53;98251.80;;;9.70
68127;BMP180;54931;52.098;21.006;2023-03-14T15:06:23;98247.80;;;9.70
68127;BMP180;54931;52.098;21.006;2023-03-14T15:08:53;98254.60;;;9.70
68127;BMP180;54931;52.098;21.006;2023-03-14T15:11:24;98258.60;;;9.70
68127;BMP180;54931;52.098;21.006;2023-03-14T15:13:53;98272.00;;;9.70
68127;BMP180;54931;52.098;21.006;2023-03-14T15:16:28;98285.80;;;9.70
68127;BMP180;54931;52.098;21.006;2023-03-14T15:19:01;98298.20;;;9.70
68127;BMP180;54931;52.098;21.006;2023-03-14T15:21:30;98298.00;;;9.70
68127;BMP180;54931;52.098;21.006;2023-03-14T15:23:58;98292.20;;;9.70
68127;BMP180;54931;52.098;21.006;2023-03-14T15:26:27;98293.80;;;9.70
68127;BMP180;54931;52.098;21.006;2023-03-14T15:28:56;98291.20;;;9.70
68127;BMP180;54931;52.098;21.006;2023-03-14T15:31:24;98285.00;;;9.70
68127;BMP180;54931;52.098;21.006;2023-03-14T15:33:52;98277.60;;;9.64
68127;BMP180;54931;52.098;21.006;2023-03-14T15:36:31;98285.40;;;9.60